sensor_id;sensor_type;location;lat;lon;timestamp;pressure;altitude;pressure_sealevel;temperature
53512;BMP280;39392;52.832;13.816;2023-06-10T00:00:18;101514.72;;;25.55
53512;BMP280;39392;52.832;13.816;2023-06-10T00:02:45;101506.66;;;25.54
53512;BMP280;39392;52.832;13.816;2023-06-10T00:05:11;101505.66;;;25.55
53512;BMP280;39392;52.832;13.816;2023-06-10T00:07:38;101501.19;;;25.54
53512;BMP280;39392;52.832;13.816;2023-06-10T00:10:05;101500.34;;;25.53
53512;BMP280;39392;52.832;13.816;2023-06-10T00:12:32;101505.66;;;25.55
53512;BMP280;39392;52.832;13.816;2023-06-10T00:15:06;101507.53;;;25.54
53512;BMP280;39392;52.832;13.816;2023-06-10T00:17:34;101507.53;;;25.54
53512;BMP280;39392;52.832;13.816;2023-06-10T00:20:00;101508.38;;;25.55
53512;BMP280;39392;52.832;13.816;2023-06-10T00:22:31;101505.19;;;25.51
53512;BMP280;39392;52.832;13.816;2023-06-10T00:24:58;101505.19;;;25.51
53512;BMP280;39392;52.832;13.816;2023-06-10T00:27:25;101507.94;;;25.51
53512;BMP280;39392;52.832;13.816;2023-06-10T00:29:57;101509.00;;;25.50
53512;BMP280;39392;52.832;13.816;2023-06-10T00:32:24;101504.34;;;25.51
53512;BMP280;39392;52.832;13.816;2023-06-10T00:34:50;101504.53;;;25.49
53512;BMP280;39392;52.832;13.816;2023-06-10T00:37:18;101499.88;;;25.50
53512;BMP280;39392;52.832;13.816;2023-06-10T00:39:45;101498.03;;;25.50
53512;BMP280;39392;52.832;13.816;2023-06-10T00:42:12;101502.84;;;25.48
53512;BMP280;39392;52.832;13.816;2023-06-10T00:44:38;101497.34;;;25.48
53512;BMP280;39392;52.832;13.816;2023-06-10T00:47:05;101492.91;;;25.47
53512;BMP280;39392;52.832;13.816;2023-06-10T00:49:32;101500.50;;;25.45
53512;BMP280;39392;52.832;13.816;2023-06-10T00:51:59;101505.13;;;25.45
53512;BMP280;39392;52.832;13.816;2023-06-10T00:54:25;101496.06;;;25.44
53512;BMP280;39392;52.832;13.816;2023-06-10T00:56:52;101496.06;;;25.44
53512;BMP280;39392;52.832;13.816;2023-06-10T00:59:19;101506.84;;;25.46
53512;BMP280;39392;52.832;13.816;2023-06-10T01:01:46;101502.22;;;25.46
53512;BMP280;39392;52.832;13.816;2023-06-10T01:04:15;101504.97;;;25.46
53512;BMP280;39392;52.832;13.816;2023-06-10T01:09:18;101504.97;;;25.46
53512;BMP280;39392;52.832;13.816;2023-06-10T01:11:51;101499.25;;;25.48
53512;BMP280;39392;52.832;13.816;2023-06-10T01:14:19;101502.00;;;25.48
53512;BMP280;39392;52.832;13.816;2023-06-10T01:16:46;101505.59;;;25.48
53512;BMP280;39392;52.832;13.816;2023-06-10T01:19:14;101511.06;;;25.48
53512;BMP280;39392;52.832;13.816;2023-06-10T01:21:43;101509.59;;;25.46
53512;BMP280;39392;52.832;13.816;2023-06-10T01:24:15;101507.69;;;25.46
53512;BMP280;39392;52.832;13.816;2023-06-10T01:26:44;101508.34;;;25.48
53512;BMP280;39392;52.832;13.816;2023-06-10T01:31:48;101510.22;;;25.48
53512;BMP280;39392;52.832;13.816;2023-06-10T01:34:17;101513.81;;;25.48
53512;BMP280;39392;52.832;13.816;2023-06-10T01:36:44;101519.31;;;25.48
53512;BMP280;39392;52.832;13.816;2023-06-10T01:39:12;101520.38;;;25.47
53512;BMP280;39392;52.832;13.816;2023-06-10T01:41:39;101515.94;;;25.46
53512;BMP280;39392;52.832;13.816;2023-06-10T01:44:06;101519.31;;;25.48
53512;BMP280;39392;52.832;13.816;2023-06-10T01:46:32;101507.69;;;25.46
53512;BMP280;39392;52.832;13.816;2023-06-10T01:48:58;101517.41;;;25.49
53512;BMP280;39392;52.832;13.816;2023-06-10T01:51:25;101513.81;;;25.48
53512;BMP280;39392;52.832;13.816;2023-06-10T01:53:51;101522.28;;;25.47
53512;BMP280;39392;52.832;13.816;2023-06-10T01:56:18;101520.38;;;25.47
53512;BMP280;39392;52.832;13.816;2023-06-10T01:58:46;101522.28;;;25.47
53512;BMP280;39392;52.832;13.816;2023-06-10T02:01:12;101523.31;;;25.46
53512;BMP280;39392;52.832;13.816;2023-06-10T02:03:39;101520.75;;;25.44
53512;BMP280;39392;52.832;13.816;2023-06-10T02:06:05;101518.00;;;25.44
53512;BMP280;39392;52.832;13.816;2023-06-10T02:08:32;101519.69;;;25.45
53512;BMP280;39392;52.832;13.816;2023-06-10T02:10:58;101520.75;;;25.44
53512;BMP280;39392;52.832;13.816;2023-06-10T02:13:25;101523.31;;;25.46
53512;BMP280;39392;52.832;13.816;2023-06-10T02:15:51;101528.81;;;25.46
53512;BMP280;39392;52.832;13.816;2023-06-10T02:18:19;101526.06;;;25.46
53512;BMP280;39392;52.832;13.816;2023-06-10T02:20:47;101532.19;;;25.48
53512;BMP280;39392;52.832;13.816;2023-06-10T02:23:13;101528.38;;;25.49
53512;BMP280;39392;52.832;13.816;2023-06-10T02:25:39;101530.28;;;25.48
53512;BMP280;39392;52.832;13.816;2023-06-10T02:28:06;101525.00;;;25.47
53512;BMP280;39392;52.832;13.816;2023-06-10T02:30:33;101533.25;;;25.47
53512;BMP280;39392;52.832;13.816;2023-06-10T02:32:59;101537.88;;;25.46
53512;BMP280;39392;52.832;13.816;2023-06-10T02:35:27;101533.25;;;25.47
53512;BMP280;39392;52.832;13.816;2023-06-10T02:37:53;101527.94;;;25.45
53512;BMP280;39392;52.832;13.816;2023-06-10T02:40:20;101531.56;;;25.46
53512;BMP280;39392;52.832;13.816;2023-06-10T02:42:47;101540.63;;;25.46
53512;BMP280;39392;52.832;13.816;2023-06-10T02:45:14;101538.91;;;25.45
53512;BMP280;39392;52.832;13.816;2023-06-10T02:47:41;101524.56;;;25.43
53512;BMP280;39392;52.832;13.816;2023-06-10T02:50:08;101527.50;;;25.42
53512;BMP280;39392;52.832;13.816;2023-06-10T02:52:34;101531.28;;;25.41
53512;BMP280;39392;52.832;13.816;2023-06-10T02:55:01;101525.63;;;25.42
53512;BMP280;39392;52.832;13.816;2023-06-10T02:57:27;101529.38;;;25.41
53512;BMP280;39392;52.832;13.816;2023-06-10T02:59:53;101540.38;;;25.41
53512;BMP280;39392;52.832;13.816;2023-06-10T03:02:20;101534.25;;;25.39
53512;BMP280;39392;52.832;13.816;2023-06-10T03:04:47;101534.63;;;25.36
53512;BMP280;39392;52.832;13.816;2023-06-10T03:07:13;101532.94;;;25.35
53512;BMP280;39392;52.832;13.816;2023-06-10T03:09:40;101532.09;;;25.34
53512;BMP280;39392;52.832;13.816;2023-06-10T03:12:10;101534.00;;;25.34
53512;BMP280;39392;52.832;13.816;2023-06-10T03:14:37;101535.03;;;25.33
53512;BMP280;39392;52.832;13.816;2023-06-10T03:17:05;101537.97;;;25.31
53512;BMP280;39392;52.832;13.816;2023-06-10T03:19:32;101532.50;;;25.31
53512;BMP280;39392;52.832;13.816;2023-06-10T03:22:09;101537.97;;;25.31
53512;BMP280;39392;52.832;13.816;2023-06-10T03:24:36;101537.75;;;25.33
53512;BMP280;39392;52.832;13.816;2023-06-10T03:27:02;101532.28;;;25.33
53512;BMP280;39392;52.832;13.816;2023-06-10T03:29:31;101531.66;;;25.31
53512;BMP280;39392;52.832;13.816;2023-06-10T03:31:57;101535.63;;;25.28
53512;BMP280;39392;52.832;13.816;2023-06-10T03:34:24;101531.19;;;25.27
53512;BMP280;39392;52.832;13.816;2023-06-10T03:36:51;101529.50;;;25.26
53512;BMP280;39392;52.832;13.816;2023-06-10T03:39:17;101528.66;;;25.26
53512;BMP280;39392;52.832;13.816;2023-06-10T03:41:44;101536.03;;;25.25
53512;BMP280;39392;52.832;13.816;2023-06-10T03:44:10;101541.53;;;25.25
53512;BMP280;39392;52.832;13.816;2023-06-10T03:46:37;101547.03;;;25.25
53512;BMP280;39392;52.832;13.816;2023-06-10T03:49:03;101539.81;;;25.24
53512;BMP280;39392;52.832;13.816;2023-06-10T03:51:29;101547.03;;;25.25
53512;BMP280;39392;52.832;13.816;2023-06-10T03:53:56;101547.03;;;25.25
53512;BMP280;39392;52.832;13.816;2023-06-10T03:56:22;101547.03;;;25.25
53512;BMP280;39392;52.832;13.816;2023-06-10T03:58:49;101552.69;;;25.24
53512;BMP280;39392;52.832;13.816;2023-06-10T04:01:15;101549.94;;;25.24
53512;BMP280;39392;52.832;13.816;2023-06-10T04:03:44;101555.44;;;25.24
53512;BMP280;39392;52.832;13.816;2023-06-10T04:06:10;101550.16;;;25.22
53512;BMP280;39392;52.832;13.816;2023-06-10T04:08:37;101551.19;;;25.21
53512;BMP280;39392;52.832;13.816;2023-06-10T04:11:04;101551.38;;;25.20
53512;BMP280;39392;52.832;13.816;2023-06-10T04:13:30;101555.38;;;25.17
53512;BMP280;39392;52.832;13.816;2023-06-10T04:15:56;101553.88;;;25.15
53512;BMP280;39392;52.832;13.816;2023-06-10T04:18:23;101569.50;;;25.14
53512;BMP280;39392;52.832;13.816;2023-06-10T04:20:50;101555.78;;;25.14
53512;BMP280;39392;52.832;13.816;2023-06-10T04:23:17;101567.59;;;25.15
53512;BMP280;39392;52.832;13.816;2023-06-10T04:25:43;101565.69;;;25.15
53512;BMP280;39392;52.832;13.816;2023-06-10T04:28:10;101570.34;;;25.15
53512;BMP280;39392;52.832;13.816;2023-06-10T04:30:36;101574.97;;;25.14
53512;BMP280;39392;52.832;13.816;2023-06-10T04:33:03;101569.50;;;25.14
53512;BMP280;39392;52.832;13.816;2023-06-10T04:35:29;101566.75;;;25.14
53512;BMP280;39392;52.832;13.816;2023-06-10T04:37:56;101577.50;;;25.16
53512;BMP280;39392;52.832;13.816;2023-06-10T04:40:22;101572.03;;;25.16
53512;BMP280;39392;52.832;13.816;2023-06-10T04:42:49;101573.28;;;25.13
53512;BMP280;39392;52.832;13.816;2023-06-10T04:45:15;101570.34;;;25.15
53512;BMP280;39392;52.832;13.816;2023-06-10T04:47:42;101581.50;;;25.13
53512;BMP280;39392;52.832;13.816;2023-06-10T04:50:08;101573.28;;;25.13
53512;BMP280;39392;52.832;13.816;2023-06-10T04:52:35;101581.69;;;25.12
53512;BMP280;39392;52.832;13.816;2023-06-10T04:55:01;101578.31;;;25.09
53512;BMP280;39392;52.832;13.816;2023-06-10T04:57:28;101580.22;;;25.09
53512;BMP280;39392;52.832;13.816;2023-06-10T04:59:55;101587.59;;;25.08
53512;BMP280;39392;52.832;13.816;2023-06-10T05:02:21;101593.22;;;25.07
53512;BMP280;39392;52.832;13.816;2023-06-10T05:04:48;101595.13;;;25.06
53512;BMP280;39392;52.832;13.816;2023-06-10T05:07:14;101584.16;;;25.06
53512;BMP280;39392;52.832;13.816;2023-06-10T05:09:41;101597.50;;;25.09
53512;BMP280;39392;52.832;13.816;2023-06-10T05:12:08;101589.06;;;25.11
53512;BMP280;39392;52.832;13.816;2023-06-10T05:14:35;101604.47;;;25.12
53512;BMP280;39392;52.832;13.816;2023-06-10T05:17:01;101601.75;;;25.12
53512;BMP280;39392;52.832;13.816;2023-06-10T05:19:28;101600.50;;;25.15
53512;BMP280;39392;52.832;13.816;2023-06-10T05:21:54;101602.03;;;25.17
53512;BMP280;39392;52.832;13.816;2023-06-10T05:24:21;101599.28;;;25.17
53512;BMP280;39392;52.832;13.816;2023-06-10T05:26:47;101595.28;;;25.20
53512;BMP280;39392;52.832;13.816;2023-06-10T05:29:15;101606.25;;;25.20
53512;BMP280;39392;52.832;13.816;2023-06-10T05:31:41;101607.97;;;25.21
53512;BMP280;39392;52.832;13.816;2023-06-10T05:34:08;101618.06;;;25.20
53512;BMP280;39392;52.832;13.816;2023-06-10T05:36:34;101617.22;;;25.20
53512;BMP280;39392;52.832;13.816;2023-06-10T05:39:01;101614.31;;;25.21
53512;BMP280;39392;52.832;13.816;2023-06-10T05:41:27;101608.81;;;25.21
53512;BMP280;39392;52.832;13.816;2023-06-10T05:43:54;101617.03;;;25.21
53512;BMP280;39392;52.832;13.816;2023-06-10T05:46:20;101605.63;;;25.18
53512;BMP280;39392;52.832;13.816;2023-06-10T05:48:47;101605.78;;;25.16
53512;BMP280;39392;52.832;13.816;2023-06-10T05:51:14;101615.75;;;25.17
53512;BMP280;39392;52.832;13.816;2023-06-10T05:53:40;101606.47;;;25.18
53512;BMP280;39392;52.832;13.816;2023-06-10T05:56:07;101612.56;;;25.20
53512;BMP280;39392;52.832;13.816;2023-06-10T05:58:33;101605.63;;;25.18
53512;BMP280;39392;52.832;13.816;2023-06-10T06:01:00;101614.00;;;25.16
53512;BMP280;39392;52.832;13.816;2023-06-10T06:03:26;101606.84;;;25.15
53512;BMP280;39392;52.832;13.816;2023-06-10T06:05:55;101620.31;;;25.10
53512;BMP280;39392;52.832;13.816;2023-06-10T06:08:21;101618.63;;;25.09
53512;BMP280;39392;52.832;13.816;2023-06-10T06:10:48;101617.75;;;25.08
53512;BMP280;39392;52.832;13.816;2023-06-10T06:13:14;101616.34;;;25.13
53512;BMP280;39392;52.832;13.816;2023-06-10T06:15:41;101612.53;;;25.14
53512;BMP280;39392;52.832;13.816;2023-06-10T06:18:07;101618.66;;;25.16
53512;BMP280;39392;52.832;13.816;2023-06-10T06:20:34;101616.50;;;25.11
53512;BMP280;39392;52.832;13.816;2023-06-10T06:23:00;101625.78;;;25.10
53512;BMP280;39392;52.832;13.816;2023-06-10T06:25:27;101631.84;;;25.05
53512;BMP280;39392;52.832;13.816;2023-06-10T06:27:54;101639.00;;;25.06
53512;BMP280;39392;52.832;13.816;2023-06-10T06:30:20;101639.50;;;25.10
53512;BMP280;39392;52.832;13.816;2023-06-10T06:32:47;101645.44;;;25.14
53512;BMP280;39392;52.832;13.816;2023-06-10T06:35:13;101644.78;;;25.12
53512;BMP280;39392;52.832;13.816;2023-06-10T06:37:40;101643.44;;;25.07
53512;BMP280;39392;52.832;13.816;2023-06-10T06:40:07;101639.84;;;25.07
53512;BMP280;39392;52.832;13.816;2023-06-10T06:42:33;101637.09;;;25.07
53512;BMP280;39392;52.832;13.816;2023-06-10T06:45:00;101647.03;;;25.08
53512;BMP280;39392;52.832;13.816;2023-06-10T06:47:26;101646.19;;;25.07
53512;BMP280;39392;52.832;13.816;2023-06-10T06:49:53;101652.50;;;25.08
53512;BMP280;39392;52.832;13.816;2023-06-10T06:52:19;101655.97;;;25.10
53512;BMP280;39392;52.832;13.816;2023-06-10T06:54:46;101666.56;;;25.13
53512;BMP280;39392;52.832;13.816;2023-06-10T06:57:12;101662.75;;;25.14
53512;BMP280;39392;52.832;13.816;2023-06-10T06:59:39;101673.53;;;25.16
53512;BMP280;39392;52.832;13.816;2023-06-10T07:02:05;101661.91;;;25.14
53512;BMP280;39392;52.832;13.816;2023-06-10T07:04:32;101666.72;;;25.12
53512;BMP280;39392;52.832;13.816;2023-06-10T07:06:58;101670.13;;;25.14
53512;BMP280;39392;52.832;13.816;2023-06-10T07:09:25;101671.19;;;25.13
53512;BMP280;39392;52.832;13.816;2023-06-10T07:11:51;101676.47;;;25.14
53512;BMP280;39392;52.832;13.816;2023-06-10T07:14:17;101674.38;;;25.16
53512;BMP280;39392;52.832;13.816;2023-06-10T07:16:44;101674.38;;;25.16
53512;BMP280;39392;52.832;13.816;2023-06-10T07:19:12;101675.41;;;25.15
53512;BMP280;39392;52.832;13.816;2023-06-10T07:21:38;101686.22;;;25.17
53512;BMP280;39392;52.832;13.816;2023-06-10T07:24:05;101688.28;;;25.15
53512;BMP280;39392;52.832;13.816;2023-06-10T07:26:31;101690.41;;;25.13
53512;BMP280;39392;52.832;13.816;2023-06-10T07:28:58;101688.50;;;25.13
53512;BMP280;39392;52.832;13.816;2023-06-10T07:31:24;101692.09;;;25.14
53512;BMP280;39392;52.832;13.816;2023-06-10T07:33:51;101696.91;;;25.12
53512;BMP280;39392;52.832;13.816;2023-06-10T07:36:18;101699.47;;;25.13
53512;BMP280;39392;52.832;13.816;2023-06-10T07:38:44;101687.44;;;25.14
53512;BMP280;39392;52.832;13.816;2023-06-10T07:41:11;101695.69;;;25.14
53512;BMP280;39392;52.832;13.816;2023-06-10T07:43:37;101692.94;;;25.14
53512;BMP280;39392;52.832;13.816;2023-06-10T07:46:04;101691.88;;;25.15
53512;BMP280;39392;52.832;13.816;2023-06-10T07:48:31;101686.59;;;25.14
53512;BMP280;39392;52.832;13.816;2023-06-10T07:50:58;101688.28;;;25.15
53512;BMP280;39392;52.832;13.816;2023-06-10T07:53:24;101689.13;;;25.15
53512;BMP280;39392;52.832;13.816;2023-06-10T07:55:51;101696.53;;;25.15
53512;BMP280;39392;52.832;13.816;2023-06-10T07:58:17;101694.63;;;25.15
53512;BMP280;39392;52.832;13.816;2023-06-10T08:00:44;101695.69;;;25.14
53512;BMP280;39392;52.832;13.816;2023-06-10T08:03:10;101690.41;;;25.13
53512;BMP280;39392;52.832;13.816;2023-06-10T08:05:39;101691.41;;;25.12
53512;BMP280;39392;52.832;13.816;2023-06-10T08:08:05;101697.09;;;25.10
53512;BMP280;39392;52.832;13.816;2023-06-10T08:10:31;101697.75;;;25.12
53512;BMP280;39392;52.832;13.816;2023-06-10T08:12:58;101701.16;;;25.14
53512;BMP280;39392;52.832;13.816;2023-06-10T08:15:24;101708.34;;;25.15
53512;BMP280;39392;52.832;13.816;2023-06-10T08:17:51;101700.78;;;25.17
53512;BMP280;39392;52.832;13.816;2023-06-10T08:20:18;101700.38;;;25.20
53512;BMP280;39392;52.832;13.816;2023-06-10T08:22:44;101696.97;;;25.18
53512;BMP280;39392;52.832;13.816;2023-06-10T08:25:11;101711.34;;;25.20
53512;BMP280;39392;52.832;13.816;2023-06-10T08:27:37;101717.50;;;25.22
53512;BMP280;39392;52.832;13.816;2023-06-10T08:30:04;101715.41;;;25.24
53512;BMP280;39392;52.832;13.816;2023-06-10T08:32:31;101722.78;;;25.24
53512;BMP280;39392;52.832;13.816;2023-06-10T08:34:57;101721.09;;;25.23
53512;BMP280;39392;52.832;13.816;2023-06-10T08:37:24;101720.25;;;25.22
53512;BMP280;39392;52.832;13.816;2023-06-10T08:39:50;101712.00;;;25.22
53512;BMP280;39392;52.832;13.816;2023-06-10T08:42:24;101697.44;;;25.22
53512;BMP280;39392;52.832;13.816;2023-06-10T08:44:53;101685.63;;;25.21
53512;BMP280;39392;52.832;13.816;2023-06-10T08:47:22;101702.09;;;25.21
53512;BMP280;39392;52.832;13.816;2023-06-10T08:49:49;101715.81;;;25.21
53512;BMP280;39392;52.832;13.816;2023-06-10T08:52:19;101720.25;;;25.22
53512;BMP280;39392;52.832;13.816;2023-06-10T08:54:48;101713.06;;;25.21
53512;BMP280;39392;52.832;13.816;2023-06-10T08:57:15;101715.97;;;25.20
53512;BMP280;39392;52.832;13.816;2023-06-10T08:59:43;101736.63;;;25.16
53512;BMP280;39392;52.832;13.816;2023-06-10T09:02:10;101707.28;;;25.16
53512;BMP280;39392;52.832;13.816;2023-06-10T09:04:36;101716.19;;;25.18
53512;BMP280;39392;52.832;13.816;2023-06-10T09:07:03;101717.25;;;25.17
53512;BMP280;39392;52.832;13.816;2023-06-10T09:09:30;101705.81;;;25.14
53512;BMP280;39392;52.832;13.816;2023-06-10T09:11:58;101721.78;;;25.10
53512;BMP280;39392;52.832;13.816;2023-06-10T09:14:25;101710.81;;;25.10
53512;BMP280;39392;52.832;13.816;2023-06-10T09:16:52;101711.28;;;25.14
53512;BMP280;39392;52.832;13.816;2023-06-10T09:19:23;101711.94;;;25.16
53512;BMP280;39392;52.832;13.816;2023-06-10T09:21:50;101718.47;;;25.15
53512;BMP280;39392;52.832;13.816;2023-06-10T09:24:17;101720.38;;;25.14
53512;BMP280;39392;52.832;13.816;2023-06-10T09:26:44;101714.63;;;25.09
53512;BMP280;39392;52.832;13.816;2023-06-10T09:29:12;101722.13;;;25.07
53512;BMP280;39392;52.832;13.816;2023-06-10T09:31:39;101730.94;;;25.02
53512;BMP280;39392;52.832;13.816;2023-06-10T09:34:09;101718.28;;;25.01
53512;BMP280;39392;52.832;13.816;2023-06-10T09:36:36;101719.91;;;24.96
53512;BMP280;39392;52.832;13.816;2023-06-10T09:39:03;101714.44;;;24.96
53512;BMP280;39392;52.832;13.816;2023-06-10T09:41:33;101715.91;;;24.98
53512;BMP280;39392;52.832;13.816;2023-06-10T09:44:01;101712.59;;;25.03
53512;BMP280;39392;52.832;13.816;2023-06-10T09:46:36;101714.50;;;25.02
53512;BMP280;39392;52.832;13.816;2023-06-10T09:49:03;101717.91;;;25.04
53512;BMP280;39392;52.832;13.816;2023-06-10T09:51:29;101712.41;;;25.04
53512;BMP280;39392;52.832;13.816;2023-06-10T09:53:56;101715.59;;;25.08
53512;BMP280;39392;52.832;13.816;2023-06-10T09:56:37;101715.47;;;25.09
53512;BMP280;39392;52.832;13.816;2023-06-10T09:59:04;101712.34;;;25.13
53512;BMP280;39392;52.832;13.816;2023-06-10T10:01:34;101719.31;;;25.15
53512;BMP280;39392;52.832;13.816;2023-06-10T10:04:00;101718.09;;;25.18
53512;BMP280;39392;52.832;13.816;2023-06-10T10:06:27;101714.28;;;25.19
53512;BMP280;39392;52.832;13.816;2023-06-10T10:08:55;101705.00;;;25.20
53512;BMP280;39392;52.832;13.816;2023-06-10T10:11:22;101706.72;;;25.21
53512;BMP280;39392;52.832;13.816;2023-06-10T10:13:50;101705.69;;;25.22
53512;BMP280;39392;52.832;13.816;2023-06-10T10:16:17;101709.06;;;25.24
53512;BMP280;39392;52.832;13.816;2023-06-10T10:18:51;101707.16;;;25.24
53512;BMP280;39392;52.832;13.816;2023-06-10T10:21:21;101716.91;;;25.27
53512;BMP280;39392;52.832;13.816;2023-06-10T10:23:51;101716.91;;;25.27
53512;BMP280;39392;52.832;13.816;2023-06-10T10:26:20;101713.97;;;25.28
53512;BMP280;39392;52.832;13.816;2023-06-10T10:28:58;101714.63;;;25.30
53512;BMP280;39392;52.832;13.816;2023-06-10T10:31:29;101713.59;;;25.31
53512;BMP280;39392;52.832;13.816;2023-06-10T10:34:00;101714.44;;;25.32
53512;BMP280;39392;52.832;13.816;2023-06-10T10:36:29;101712.53;;;25.32
53512;BMP280;39392;52.832;13.816;2023-06-10T10:38:56;101710.63;;;25.33
53512;BMP280;39392;52.832;13.816;2023-06-10T10:41:24;101706.88;;;25.34
53512;BMP280;39392;52.832;13.816;2023-06-10T10:43:52;101707.50;;;25.36
53512;BMP280;39392;52.832;13.816;2023-06-10T10:46:20;101697.59;;;25.35
53512;BMP280;39392;52.832;13.816;2023-06-10T10:48:51;101693.63;;;25.38
53512;BMP280;39392;52.832;13.816;2023-06-10T10:51:18;101690.00;;;25.37
53512;BMP280;39392;52.832;13.816;2023-06-10T10:54:09;101693.78;;;25.36
53512;BMP280;39392;52.832;13.816;2023-06-10T10:56:32;101692.72;;;25.37
53512;BMP280;39392;52.832;13.816;2023-06-10T10:59:05;101691.72;;;25.38
53512;BMP280;39392;52.832;13.816;2023-06-10T11:01:41;101692.34;;;25.40
53512;BMP280;39392;52.832;13.816;2023-06-10T11:04:08;101684.13;;;25.40
53512;BMP280;39392;52.832;13.816;2023-06-10T11:06:36;101680.16;;;25.43
53512;BMP280;39392;52.832;13.816;2023-06-10T11:11:49;101680.59;;;25.46
53512;BMP280;39392;52.832;13.816;2023-06-10T11:14:16;101679.56;;;25.47
53512;BMP280;39392;52.832;13.816;2023-06-10T11:16:52;101689.88;;;25.45
53512;BMP280;39392;52.832;13.816;2023-06-10T11:19:32;101686.72;;;25.48
53512;BMP280;39392;52.832;13.816;2023-06-10T11:22:02;101690.16;;;25.50
53512;BMP280;39392;52.832;13.816;2023-06-10T11:24:29;101698.38;;;25.50
53512;BMP280;39392;52.832;13.816;2023-06-10T11:27:16;101685.69;;;25.49
53512;BMP280;39392;52.832;13.816;2023-06-10T11:32:23;101685.69;;;25.49
53512;BMP280;39392;52.832;13.816;2023-06-10T11:34:54;101678.28;;;25.50
53512;BMP280;39392;52.832;13.816;2023-06-10T11:37:21;101679.16;;;25.50
53512;BMP280;39392;52.832;13.816;2023-06-10T11:39:51;101670.94;;;25.50
53512;BMP280;39392;52.832;13.816;2023-06-10T11:42:17;101670.94;;;25.50
53512;BMP280;39392;52.832;13.816;2023-06-10T11:44:51;101669.88;;;25.51
53512;BMP280;39392;52.832;13.816;2023-06-10T11:47:18;101664.84;;;25.55
53512;BMP280;39392;52.832;13.816;2023-06-10T11:49:45;101657.63;;;25.54
53512;BMP280;39392;52.832;13.816;2023-06-10T11:52:16;101653.19;;;25.53
53512;BMP280;39392;52.832;13.816;2023-06-10T11:54:42;101649.41;;;25.54
53512;BMP280;39392;52.832;13.816;2023-06-10T11:57:19;101653.03;;;25.54
53512;BMP280;39392;52.832;13.816;2023-06-10T11:59:45;101641.16;;;25.54
53512;BMP280;39392;52.832;13.816;2023-06-10T12:02:16;101645.63;;;25.55
53512;BMP280;39392;52.832;13.816;2023-06-10T12:04:43;101647.31;;;25.56
53512;BMP280;39392;52.832;13.816;2023-06-10T12:07:14;101638.03;;;25.57
53512;BMP280;39392;52.832;13.816;2023-06-10T12:09:45;101627.72;;;25.59
53512;BMP280;39392;52.832;13.816;2023-06-10T12:12:12;101633.22;;;25.59
53512;BMP280;39392;52.832;13.816;2023-06-10T12:14:54;101622.41;;;25.57
53512;BMP280;39392;52.832;13.816;2023-06-10T12:19:58;101619.28;;;25.61
53512;BMP280;39392;52.832;13.816;2023-06-10T12:22:26;101626.44;;;25.62
53512;BMP280;39392;52.832;13.816;2023-06-10T12:25:00;101623.72;;;25.62
53512;BMP280;39392;52.832;13.816;2023-06-10T12:27:30;101617.38;;;25.61
53512;BMP280;39392;52.832;13.816;2023-06-10T12:29:58;101608.28;;;25.61
53512;BMP280;39392;52.832;13.816;2023-06-10T12:32:43;101604.50;;;25.62
53512;BMP280;39392;52.832;13.816;2023-06-10T12:35:10;101602.81;;;25.61
53512;BMP280;39392;52.832;13.816;2023-06-10T12:37:40;101609.13;;;25.61
53512;BMP280;39392;52.832;13.816;2023-06-10T12:40:09;101618.44;;;25.60
53512;BMP280;39392;52.832;13.816;2023-06-10T12:42:36;101635.75;;;25.61
53512;BMP280;39392;52.832;13.816;2023-06-10T12:45:03;101633.00;;;25.61
53512;BMP280;39392;52.832;13.816;2023-06-10T12:47:30;101667.63;;;25.62
53512;BMP280;39392;52.832;13.816;2023-06-10T12:50:01;101652.66;;;25.64
53512;BMP280;39392;52.832;13.816;2023-06-10T12:52:29;101653.53;;;25.65
53512;BMP280;39392;52.832;13.816;2023-06-10T12:54:56;101657.09;;;25.65
53512;BMP280;39392;52.832;13.816;2023-06-10T12:57:22;101648.88;;;25.65
53512;BMP280;39392;52.832;13.816;2023-06-10T12:59:49;101641.47;;;25.66
53512;BMP280;39392;52.832;13.816;2023-06-10T13:02:26;101651.63;;;25.65
53512;BMP280;39392;52.832;13.816;2023-06-10T13:04:53;101653.53;;;25.65
53512;BMP280;39392;52.832;13.816;2023-06-10T13:07:20;101647.19;;;25.64
53512;BMP280;39392;52.832;13.816;2023-06-10T13:09:49;101642.75;;;25.63
53512;BMP280;39392;52.832;13.816;2023-06-10T13:12:15;101630.91;;;25.63
53512;BMP280;39392;52.832;13.816;2023-06-10T13:14:55;101631.94;;;25.62
53512;BMP280;39392;52.832;13.816;2023-06-10T13:17:22;101622.88;;;25.61
53512;BMP280;39392;52.832;13.816;2023-06-10T13:19:49;101610.19;;;25.60
53512;BMP280;39392;52.832;13.816;2023-06-10T13:22:16;101609.13;;;25.61
53512;BMP280;39392;52.832;13.816;2023-06-10T13:24:42;101602.81;;;25.61
53512;BMP280;39392;52.832;13.816;2023-06-10T13:27:10;101599.22;;;25.60
53512;BMP280;39392;52.832;13.816;2023-06-10T13:29:36;101611.25;;;25.59
53512;BMP280;39392;52.832;13.816;2023-06-10T13:32:02;101589.28;;;25.59
53512;BMP280;39392;52.832;13.816;2023-06-10T13:34:29;101587.56;;;25.58
53512;BMP280;39392;52.832;13.816;2023-06-10T13:36:55;101592.88;;;25.59
53512;BMP280;39392;52.832;13.816;2023-06-10T13:39:22;101576.59;;;25.58
53512;BMP280;39392;52.832;13.816;2023-06-10T13:41:48;101581.91;;;25.59
53512;BMP280;39392;52.832;13.816;2023-06-10T13:44:15;101581.22;;;25.57
53512;BMP280;39392;52.832;13.816;2023-06-10T13:46:41;101573.00;;;25.57
53512;BMP280;39392;52.832;13.816;2023-06-10T13:49:08;101577.66;;;25.57
53512;BMP280;39392;52.832;13.816;2023-06-10T13:51:35;101565.81;;;25.56
53512;BMP280;39392;52.832;13.816;2023-06-10T13:54:01;101571.31;;;25.56
53512;BMP280;39392;52.832;13.816;2023-06-10T13:56:28;101568.56;;;25.56
53512;BMP280;39392;52.832;13.816;2023-06-10T13:58:54;101566.88;;;25.55